Time;durP1;ratioP1;P1;durP2;ratioP2;P2;SDS_P1;SDS_P2;PMS_P1;PMS_P2;Temp;Humidity;BMP_temperature;BMP_pressure;BME280_temperature;BME280_humidity;BME280_pressure;Samples;Min_cycle;Max_cycle;Signal;HPM_P1;HPM_P2
2022/03/29 00:00:38;;;;;;;15.07;7.03;;;13.20;99.90;;;;;;5052543;28;20083;-75
2022/03/29 00:03:05;;;;;;;15.80;6.93;;;13.20;99.90;;;;;;5052531;28;20028;-74
2022/03/29 00:05:32;;;;;;;14.30;6.50;;;13.10;99.90;;;;;;5052289;28;20404;-73
2022/03/29 00:07:58;;;;;;;13.95;6.75;;;13.20;99.90;;;;;;5053960;28;20052;-74
2022/03/29 00:10:24;;;;;;;14.35;7.18;;;13.20;99.90;;;;;;5056035;28;20067;-72
2022/03/29 00:12:53;;;;;;;15.90;7.00;;;13.10;99.90;;;;;;5056039;28;20104;-72
2022/03/29 00:15:20;;;;;;;17.63;7.25;;;13.10;99.90;;;;;;5055961;28;20078;-74
2022/03/29 00:17:46;;;;;;;18.35;7.80;;;13.00;99.90;;;;;;5055937;28;20010;-76
2022/03/29 00:20:11;;;;;;;17.08;7.45;;;12.90;99.90;;;;;;5056446;28;20031;-74
2022/03/29 00:22:38;;;;;;;19.30;7.25;;;13.00;99.90;;;;;;5056141;28;20060;-73
2022/03/29 00:25:05;;;;;;;15.07;7.53;;;12.90;99.90;;;;;;5056442;28;20037;-73
2022/03/29 00:27:30;;;;;;;14.18;7.60;;;12.80;99.90;;;;;;5056387;28;20017;-75
2022/03/29 00:29:56;;;;;;;13.55;7.60;;;12.70;99.90;;;;;;5055704;28;20377;-75
2022/03/29 00:32:22;;;;;;;15.32;7.03;;;12.70;99.90;;;;;;5055454;28;20021;-72
2022/03/29 00:34:47;;;;;;;16.02;7.60;;;12.70;99.90;;;;;;5055630;28;20025;-72
2022/03/29 00:37:13;;;;;;;19.17;8.55;;;12.60;99.90;;;;;;5055584;28;20079;-72
2022/03/29 00:39:39;;;;;;;21.35;8.52;;;12.50;99.90;;;;;;5055555;28;20074;-72
2022/03/29 00:42:05;;;;;;;15.75;8.52;;;12.50;99.90;;;;;;5055816;28;20021;-73
2022/03/29 00:44:32;;;;;;;18.05;7.95;;;12.40;99.90;;;;;;5056013;28;20025;-74
2022/03/29 00:46:58;;;;;;;15.80;7.95;;;12.40;99.90;;;;;;5055423;28;20428;-73
2022/03/29 00:49:25;;;;;;;16.65;7.32;;;12.40;99.90;;;;;;5055307;28;20029;-72
2022/03/29 00:51:55;;;;;;;19.40;8.27;;;12.50;99.90;;;;;;5055367;28;20416;-75
2022/03/29 00:54:22;;;;;;;17.92;6.47;;;12.50;99.90;;;;;;5055352;28;20049;-75
2022/03/29 00:56:48;;;;;;;20.20;8.50;;;12.50;99.90;;;;;;5055727;28;20017;-73
2022/03/29 00:59:13;;;;;;;17.63;7.60;;;12.40;99.90;;;;;;5055191;28;20063;-72
2022/03/29 01:01:39;;;;;;;20.45;7.72;;;12.50;99.90;;;;;;5055139;28;20052;-72
2022/03/29 01:04:06;;;;;;;16.70;8.05;;;12.60;99.90;;;;;;5055092;28;20033;-73
2022/03/29 01:06:32;;;;;;;18.98;7.72;;;12.60;99.90;;;;;;5060394;28;20412;-73
2022/03/29 01:08:59;;;;;;;17.65;8.15;;;12.50;99.90;;;;;;5075011;28;20492;-74
2022/03/29 01:11:26;;;;;;;16.77;7.82;;;12.30;99.90;;;;;;5074931;28;20032;-72
2022/03/29 01:13:52;;;;;;;16.45;7.25;;;12.20;99.90;;;;;;5074938;28;20101;-75
2022/03/29 01:19:07;;;;;;;21.23;8.23;;;12.10;99.90;;;;;;5073759;28;20615;-71
2022/03/29 01:21:37;;;;;;;18.15;7.78;;;12.00;99.90;;;;;;5074693;28;20405;-71
2022/03/29 01:24:05;;;;;;;14.20;8.05;;;12.00;99.90;;;;;;5074747;28;20077;-71
2022/03/29 01:26:32;;;;;;;16.15;7.40;;;11.90;99.90;;;;;;5074691;28;20043;-70
2022/03/29 01:28:58;;;;;;;20.50;7.75;;;12.00;99.90;;;;;;5075216;28;20021;-72
2022/03/29 01:31:25;;;;;;;21.48;7.45;;;12.20;99.90;;;;;;5075034;28;20047;-75
2022/03/29 01:33:51;;;;;;;14.63;7.60;;;12.30;99.90;;;;;;5074535;28;20489;-71
2022/03/29 01:36:16;;;;;;;15.32;6.95;;;12.30;99.90;;;;;;5074466;28;20016;-71
2022/03/29 01:38:42;;;;;;;17.55;7.65;;;12.30;99.90;;;;;;5074462;28;20017;-72
2022/03/29 01:41:09;;;;;;;20.23;7.72;;;12.20;99.90;;;;;;5074388;28;20030;-72
2022/03/29 01:43:35;;;;;;;16.38;7.20;;;12.30;99.90;;;;;;5074883;28;20029;-74
2022/03/29 01:46:01;;;;;;;18.15;7.63;;;12.30;99.90;;;;;;5074275;28;20032;-72
2022/03/29 01:48:27;;;;;;;13.32;7.55;;;12.20;99.90;;;;;;5074228;28;20507;-74
2022/03/29 01:50:53;;;;;;;14.30;7.10;;;12.30;99.90;;;;;;5074394;28;20112;-71
2022/03/29 01:53:27;;;;;;;14.98;7.35;;;12.40;99.90;;;;;;5074436;28;20480;-74
2022/03/29 01:56:00;;;;;;;17.00;7.38;;;12.50;99.90;;;;;;5074311;28;20473;-73
2022/03/29 01:58:27;;;;;;;15.32;7.45;;;12.50;99.90;;;;;;5072766;28;20029;-74
2022/03/29 02:00:53;;;;;;;15.35;7.70;;;12.50;99.90;;;;;;5074002;28;20031;-75
2022/03/29 02:03:19;;;;;;;18.33;7.30;;;12.50;99.90;;;;;;5074494;28;20025;-73
2022/03/29 02:05:45;;;;;;;11.80;7.05;;;12.50;99.90;;;;;;5066755;28;20049;-72
2022/03/29 02:08:11;;;;;;;19.17;6.65;;;12.50;99.90;;;;;;5053908;28;20512;-73
2022/03/29 02:10:37;;;;;;;16.25;6.90;;;12.50;99.90;;;;;;5053993;28;20083;-74
2022/03/29 02:13:03;;;;;;;14.70;7.35;;;12.60;99.90;;;;;;5054099;28;20389;-73
2022/03/29 02:15:29;;;;;;;19.80;7.38;;;12.60;99.90;;;;;;5054021;28;20017;-74
2022/03/29 02:17:55;;;;;;;14.38;7.40;;;12.30;99.90;;;;;;5054247;28;20473;-71
2022/03/29 02:20:22;;;;;;;12.80;7.13;;;12.10;99.90;;;;;;5053990;28;20025;-73
2022/03/29 02:22:48;;;;;;;20.02;7.55;;;12.20;99.90;;;;;;5053673;28;20057;-74
2022/03/29 02:25:14;;;;;;;14.95;7.05;;;12.40;99.90;;;;;;5053646;28;20060;-72
2022/03/29 02:27:43;;;;;;;16.25;6.88;;;12.40;99.90;;;;;;5053865;28;20434;-69
2022/03/29 02:30:12;;;;;;;18.85;7.60;;;12.50;99.90;;;;;;5053235;28;20028;-72
2022/03/29 02:32:40;;;;;;;17.40;6.68;;;12.50;99.90;;;;;;5053437;28;20032;-72
2022/03/29 02:35:07;;;;;;;21.40;7.90;;;12.50;99.90;;;;;;5053713;28;20021;-70
2022/03/29 02:37:33;;;;;;;15.13;7.07;;;12.50;99.90;;;;;;5053390;28;20025;-72
2022/03/29 02:39:59;;;;;;;13.88;6.97;;;12.50;99.90;;;;;;5053400;28;20103;-73
2022/03/29 02:42:25;;;;;;;17.35;7.43;;;12.50;99.90;;;;;;5053603;28;20110;-73
2022/03/29 02:44:50;;;;;;;14.00;7.32;;;12.50;99.90;;;;;;5053285;28;20493;-72
2022/03/29 02:47:16;;;;;;;16.30;7.28;;;12.30;99.90;;;;;;5053563;28;20029;-72
2022/03/29 02:49:42;;;;;;;15.65;7.78;;;12.40;99.90;;;;;;5053413;28;20024;-70
2022/03/29 02:52:07;;;;;;;20.95;7.53;;;12.40;99.90;;;;;;5053299;28;20096;-72
2022/03/29 02:54:35;;;;;;;20.55;7.85;;;12.40;99.90;;;;;;5053205;28;20028;-73
2022/03/29 02:57:00;;;;;;;15.88;6.78;;;12.40;99.90;;;;;;5053096;28;20021;-75
2022/03/29 02:59:26;;;;;;;16.52;7.07;;;12.30;99.90;;;;;;5053114;28;20104;-74
2022/03/29 03:01:52;;;;;;;17.00;7.00;;;12.30;99.90;;;;;;5053126;28;20500;-72
2022/03/29 03:04:17;;;;;;;17.25;7.82;;;12.30;99.90;;;;;;5053058;28;20028;-72
2022/03/29 03:06:43;;;;;;;17.88;7.00;;;12.20;99.90;;;;;;5061477;28;20520;-70
2022/03/29 03:09:09;;;;;;;12.93;6.95;;;12.10;99.90;;;;;;5073343;28;20385;-76
2022/03/29 03:11:36;;;;;;;15.82;6.80;;;12.00;99.90;;;;;;5073259;28;20107;-73
2022/03/29 03:14:02;;;;;;;18.52;6.90;;;11.90;99.90;;;;;;5073316;28;20017;-72
2022/03/29 03:16:27;;;;;;;18.45;7.07;;;11.80;99.90;;;;;;5073308;28;20481;-73
2022/03/29 03:18:53;;;;;;;16.13;7.03;;;11.70;99.90;;;;;;5073032;28;20017;-73
2022/03/29 03:21:19;;;;;;;17.63;7.22;;;11.50;99.90;;;;;;5073268;28;20036;-71
2022/03/29 03:23:44;;;;;;;24.15;8.32;;;11.40;99.90;;;;;;5073251;28;20021;-70
2022/03/29 03:26:10;;;;;;;16.73;8.05;;;11.20;99.90;;;;;;5072962;28;20099;-74
2022/03/29 03:28:36;;;;;;;16.08;7.47;;;11.10;99.90;;;;;;5073177;28;20039;-73
2022/03/29 03:31:02;;;;;;;15.48;7.60;;;11.00;99.90;;;;;;5072837;28;20027;-74
2022/03/29 03:33:28;;;;;;;15.90;7.22;;;10.80;99.90;;;;;;5073148;28;20020;-71
2022/03/29 03:35:53;;;;;;;22.67;7.97;;;10.80;99.90;;;;;;5072796;28;20534;-71
2022/03/29 03:38:19;;;;;;;17.30;8.73;;;10.70;99.90;;;;;;5073064;28;20059;-71
2022/03/29 03:40:45;;;;;;;15.40;8.30;;;10.60;99.90;;;;;;5071511;28;20038;-72
2022/03/29 03:43:10;;;;;;;17.15;9.13;;;10.50;99.90;;;;;;5074561;28;20048;-70
2022/03/29 03:45:36;;;;;;;15.40;8.35;;;10.50;99.90;;;;;;5076582;28;20021;-72
2022/03/29 03:48:03;;;;;;;15.30;8.95;;;10.50;99.90;;;;;;5076587;28;20370;-74
2022/03/29 03:50:29;;;;;;;17.95;8.63;;;10.40;99.90;;;;;;5076422;28;20031;-75
2022/03/29 03:52:54;;;;;;;17.33;9.70;;;10.30;99.90;;;;;;5076444;28;20017;-72
2022/03/29 03:55:21;;;;;;;16.88;9.70;;;10.20;99.90;;;;;;5076339;28;20059;-71
2022/03/29 03:57:47;;;;;;;18.83;8.50;;;10.10;99.90;;;;;;5076341;28;20461;-72
2022/03/29 04:00:14;;;;;;;16.52;8.68;;;10.10;99.90;;;;;;5076308;28;20489;-72
2022/03/29 04:02:40;;;;;;;15.85;9.20;;;9.90;99.90;;;;;;5076260;28;20031;-71
2022/03/29 04:05:08;;;;;;;20.60;10.23;;;9.80;99.90;;;;;;5074529;28;20071;-70
2022/03/29 04:07:34;;;;;;;15.80;8.50;;;9.60;99.90;;;;;;5056498;28;20111;-74
2022/03/29 04:10:00;;;;;;;16.70;10.02;;;9.50;99.90;;;;;;5056097;28;20032;-73
2022/03/29 04:12:27;;;;;;;15.73;10.65;;;9.40;99.90;;;;;;5056136;28;20025;-73
2022/03/29 04:14:54;;;;;;;30.67;11.25;;;9.40;99.90;;;;;;5056078;28;20028;-74
2022/03/29 04:17:19;;;;;;;17.05;10.13;;;9.40;99.90;;;;;;5056034;28;20048;-72
2022/03/29 04:19:45;;;;;;;16.48;9.95;;;9.40;99.90;;;;;;5055965;28;20458;-72
2022/03/29 04:22:11;;;;;;;18.13;9.40;;;9.50;99.90;;;;;;5056481;28;20021;-70
2022/03/29 04:24:37;;;;;;;18.15;9.73;;;9.60;99.90;;;;;;5055831;28;20048;-72
2022/03/29 04:27:03;;;;;;;21.05;10.38;;;9.60;99.90;;;;;;5055785;28;20055;-74
2022/03/29 04:29:29;;;;;;;22.25;10.45;;;9.50;99.90;;;;;;5055777;28;20013;-71
2022/03/29 04:31:55;;;;;;;19.52;10.52;;;9.40;99.90;;;;;;5055667;28;20465;-70
2022/03/29 04:34:20;;;;;;;19.35;9.73;;;9.30;99.90;;;;;;5056007;28;20049;-71
2022/03/29 04:36:46;;;;;;;17.35;9.57;;;9.30;99.90;;;;;;5055627;28;20397;-71
2022/03/29 04:39:12;;;;;;;16.95;9.95;;;9.30;99.90;;;;;;5055857;28;20022;-75
2022/03/29 04:41:39;;;;;;;20.30;10.20;;;9.40;99.90;;;;;;5055599;28;20017;-72
2022/03/29 04:44:05;;;;;;;25.08;10.30;;;9.50;99.90;;;;;;5037586;28;20059;-72
2022/03/29 04:46:31;;;;;;;18.35;9.35;;;9.40;99.90;;;;;;5055423;28;20025;-71
2022/03/29 04:48:56;;;;;;;19.92;9.55;;;9.20;99.90;;;;;;5055670;28;20040;-72
2022/03/29 04:51:22;;;;;;;22.15;10.18;;;9.20;99.90;;;;;;5055249;28;20028;-72
2022/03/29 04:53:48;;;;;;;16.60;9.65;;;9.10;99.90;;;;;;5055415;28;20385;-75
2022/03/29 04:56:14;;;;;;;20.05;9.68;;;9.00;99.90;;;;;;5055187;28;20032;-72
2022/03/29 04:58:40;;;;;;;19.98;10.00;;;8.90;99.90;;;;;;5055245;28;20018;-72
2022/03/29 05:01:06;;;;;;;24.15;11.10;;;8.80;99.90;;;;;;5055743;28;20028;-73
2022/03/29 05:03:32;;;;;;;22.30;10.70;;;8.70;99.90;;;;;;5055440;28;20124;-73
2022/03/29 05:05:58;;;;;;;18.95;11.23;;;8.70;99.90;;;;;;5055123;28;20053;-71
2022/03/29 05:08:24;;;;;;;19.23;11.48;;;8.60;99.90;;;;;;5055611;28;20031;-72
2022/03/29 05:10:49;;;;;;;17.98;10.15;;;8.60;99.90;;;;;;5055236;28;20039;-72
2022/03/29 05:13:18;;;;;;;24.55;10.07;;;8.60;99.90;;;;;;5054964;28;20024;-72
2022/03/29 05:15:44;;;;;;;24.90;10.25;;;8.60;99.90;;;;;;5054934;28;20036;-71
2022/03/29 05:18:10;;;;;;;17.45;9.65;;;8.60;99.90;;;;;;5054892;28;20017;-70
2022/03/29 05:20:36;;;;;;;18.58;9.45;;;8.50;99.90;;;;;;5054863;28;20490;-74
2022/03/29 05:23:06;;;;;;;20.80;10.00;;;8.40;99.90;;;;;;5054769;28;20378;-71
2022/03/29 05:25:32;;;;;;;28.95;10.30;;;8.30;99.90;;;;;;5054724;28;20126;-72
2022/03/29 05:27:58;;;;;;;18.90;9.35;;;8.40;99.90;;;;;;5054637;28;20505;-72
2022/03/29 05:30:24;;;;;;;23.05;10.38;;;8.30;99.90;;;;;;5054512;28;20036;-75
2022/03/29 05:32:51;;;;;;;18.85;10.70;;;8.30;99.90;;;;;;5054622;28;20063;-74
2022/03/29 05:35:17;;;;;;;19.40;9.35;;;8.30;99.90;;;;;;5054511;28;20032;-71
2022/03/29 05:37:43;;;;;;;18.45;9.00;;;8.30;99.90;;;;;;5054496;28;20087;-72
2022/03/29 05:40:10;;;;;;;17.35;9.30;;;8.20;99.90;;;;;;5054468;28;20477;-74
2022/03/29 05:42:44;;;;;;;16.63;9.50;;;8.10;99.90;;;;;;5054659;28;20017;-70
2022/03/29 05:45:11;;;;;;;26.20;12.18;;;8.20;99.90;;;;;;5036452;28;20037;-73
2022/03/29 05:50:22;;;;;;;26.70;10.93;;;8.20;99.90;;;;;;5054697;28;20071;-71
2022/03/29 05:52:48;;;;;;;23.27;12.45;;;8.20;99.90;;;;;;5054182;28;20474;-72
2022/03/29 05:55:14;;;;;;;23.27;12.90;;;8.20;99.90;;;;;;5054072;28;20027;-71
2022/03/29 05:57:39;;;;;;;25.13;12.27;;;8.20;99.90;;;;;;5054128;28;20025;-75
2022/03/29 06:00:08;;;;;;;26.27;12.23;;;8.20;99.90;;;;;;5054306;28;20033;-69
2022/03/29 06:02:34;;;;;;;22.30;10.50;;;8.40;99.90;;;;;;5054055;28;20493;-73
2022/03/29 06:05:00;;;;;;;20.13;9.73;;;8.40;99.90;;;;;;5053516;28;20036;-73
2022/03/29 06:07:26;;;;;;;20.98;9.40;;;8.50;99.90;;;;;;5053745;28;20024;-75
2022/03/29 06:09:52;;;;;;;19.67;9.40;;;8.50;99.90;;;;;;5054080;28;20394;-72
2022/03/29 06:12:22;;;;;;;15.73;8.55;;;8.60;99.90;;;;;;5053837;28;20100;-74
2022/03/29 06:14:48;;;;;;;15.90;8.60;;;8.70;99.90;;;;;;5035901;28;20512;-75
2022/03/29 06:17:14;;;;;;;25.70;9.95;;;8.80;99.90;;;;;;5053729;28;20051;-70
2022/03/29 06:19:40;;;;;;;21.88;9.52;;;9.00;99.90;;;;;;5053702;28;20021;-76
2022/03/29 06:22:05;;;;;;;20.85;9.68;;;9.00;99.90;;;;;;5053661;28;20032;-75
2022/03/29 06:24:32;;;;;;;21.52;9.35;;;9.00;99.90;;;;;;5035787;28;20032;-72
2022/03/29 06:26:58;;;;;;;24.60;11.30;;;9.10;99.90;;;;;;5053632;28;20488;-69
2022/03/29 06:29:24;;;;;;;20.10;9.10;;;9.30;99.90;;;;;;5053554;28;20029;-74
2022/03/29 06:31:51;;;;;;;19.83;10.65;;;9.50;99.90;;;;;;5054002;28;20104;-74
2022/03/29 06:34:16;;;;;;;22.55;10.77;;;9.50;99.90;;;;;;5053446;28;20525;-70
2022/03/29 06:36:42;;;;;;;21.88;9.90;;;9.80;99.90;;;;;;5053402;28;20104;-73
2022/03/29 06:39:11;;;;;;;20.70;9.45;;;9.80;99.90;;;;;;5053386;28;20028;-73
2022/03/29 06:41:37;;;;;;;22.80;9.93;;;9.90;99.90;;;;;;5053616;28;20021;-75
2022/03/29 06:44:03;;;;;;;22.85;11.13;;;10.10;99.90;;;;;;5053894;28;20099;-72
2022/03/29 06:46:29;;;;;;;24.15;10.23;;;10.40;99.90;;;;;;5053847;28;20029;-72
2022/03/29 06:48:56;;;;;;;20.92;9.98;;;10.70;99.90;;;;;;5053255;28;20096;-74
2022/03/29 06:51:23;;;;;;;21.27;10.15;;;10.70;99.90;;;;;;5035129;28;20025;-72
2022/03/29 06:53:49;;;;;;;22.20;10.70;;;10.70;99.90;;;;;;5052890;28;20067;-72
2022/03/29 06:56:17;;;;;;;19.00;9.77;;;10.90;99.90;;;;;;5052652;28;20024;-73
2022/03/29 06:58:43;;;;;;;20.80;10.05;;;11.00;99.90;;;;;;5052998;28;20029;-70
2022/03/29 07:01:09;;;;;;;19.77;9.70;;;11.20;99.90;;;;;;5052383;28;20498;-75
2022/03/29 07:03:35;;;;;;;19.73;10.35;;;11.30;99.90;;;;;;5052525;28;20040;-73
2022/03/29 07:06:03;;;;;;;28.08;10.77;;;11.40;99.90;;;;;;5052889;28;20056;-74
2022/03/29 07:08:30;;;;;;;19.30;11.55;;;11.70;99.90;;;;;;5035206;28;20033;-71
2022/03/29 07:13:41;;;;;;;28.02;13.10;;;12.00;99.90;;;;;;5052893;28;20083;-72
2022/03/29 07:16:09;;;;;;;24.02;12.13;;;12.10;99.90;;;;;;5053104;28;20044;-73
2022/03/29 07:18:35;;;;;;;23.38;12.30;;;12.20;99.90;;;;;;5054516;28;20508;-72
2022/03/29 07:21:01;;;;;;;20.23;12.45;;;12.30;99.90;;;;;;5039140;28;20397;-73
2022/03/29 07:23:29;;;;;;;25.55;12.05;;;12.40;99.90;;;;;;5039096;28;20474;-71
2022/03/29 07:25:56;;;;;;;26.92;12.30;;;12.50;99.90;;;;;;5057155;28;20032;-69
2022/03/29 07:28:23;;;;;;;20.60;13.15;;;12.70;99.90;;;;;;5055819;28;20114;-72
2022/03/29 07:30:49;;;;;;;27.80;12.50;;;12.60;99.90;;;;;;5056452;28;20439;-73
2022/03/29 07:33:17;;;;;;;28.20;14.32;;;12.50;99.90;;;;;;5056393;28;20029;-73
2022/03/29 07:35:44;;;;;;;28.50;13.88;;;12.60;99.90;;;;;;5057072;28;20021;-71
2022/03/29 07:38:11;;;;;;;23.77;13.27;;;12.80;99.90;;;;;;5037937;28;20033;-71
2022/03/29 07:40:38;;;;;;;27.80;12.07;;;12.90;99.90;;;;;;5056381;28;20444;-74
2022/03/29 07:43:04;;;;;;;24.02;13.60;;;13.20;99.90;;;;;;5056674;28;20028;-74
2022/03/29 07:45:31;;;;;;;25.73;13.25;;;13.20;99.90;;;;;;5056250;28;20020;-73
2022/03/29 07:47:57;;;;;;;26.90;13.88;;;13.30;99.90;;;;;;5055833;28;20029;-74
2022/03/29 07:50:24;;;;;;;29.73;13.52;;;13.30;99.90;;;;;;5056139;28;20024;-74
2022/03/29 07:52:50;;;;;;;24.85;12.60;;;13.40;99.90;;;;;;5056541;28;20025;-74
2022/03/29 07:55:16;;;;;;;24.33;12.48;;;13.40;99.90;;;;;;5056459;28;20534;-75
2022/03/29 07:57:43;;;;;;;32.60;14.00;;;13.40;99.90;;;;;;5056239;28;20025;-73
2022/03/29 08:02:56;;;;;;;32.97;14.02;;;13.60;99.90;;;;;;5056500;28;20040;-75
2022/03/29 08:05:22;;;;;;;25.23;12.88;;;13.80;99.90;;;;;;5055660;28;20037;-73
2022/03/29 08:07:48;;;;;;;26.42;12.77;;;14.00;99.90;;;;;;5055515;28;20033;-72
2022/03/29 08:10:14;;;;;;;28.35;13.88;;;14.10;99.90;;;;;;5056340;28;20388;-73
2022/03/29 08:12:40;;;;;;;30.58;14.43;;;14.10;99.90;;;;;;5056330;28;20029;-73
2022/03/29 08:15:08;;;;;;;32.13;13.18;;;14.30;99.90;;;;;;5038251;28;20031;-73
2022/03/29 08:17:34;;;;;;;31.70;14.25;;;14.30;99.90;;;;;;5055512;28;20028;-73
2022/03/29 08:20:01;;;;;;;26.80;14.10;;;14.30;99.90;;;;;;5055999;28;20497;-73
2022/03/29 08:22:26;;;;;;;26.95;14.00;;;14.40;99.90;;;;;;5055133;28;20107;-75
2022/03/29 08:24:52;;;;;;;22.13;12.48;;;14.50;99.90;;;;;;5054681;28;20433;-74
2022/03/29 08:27:18;;;;;;;23.83;13.25;;;14.40;99.90;;;;;;5055826;28;20025;-72
2022/03/29 08:29:47;;;;;;;24.98;13.48;;;14.40;99.90;;;;;;5054483;28;20426;-74
2022/03/29 08:32:13;;;;;;;25.08;13.52;;;14.60;99.90;;;;;;5055673;28;20033;-77
2022/03/29 08:34:39;;;;;;;42.65;16.52;;;14.70;99.90;;;;;;5055991;28;20482;-75
2022/03/29 08:37:05;;;;;;;24.63;12.95;;;14.80;99.90;;;;;;5055741;28;20021;-72
2022/03/29 08:39:30;;;;;;;24.85;12.80;;;15.00;99.90;;;;;;5037849;28;20044;-74
2022/03/29 08:42:02;;;;;;;21.10;11.77;;;15.10;99.90;;;;;;5055109;28;20103;-76
2022/03/29 08:44:29;;;;;;;22.27;11.80;;;15.20;99.90;;;;;;5055885;28;20029;-74
2022/03/29 08:46:55;;;;;;;29.17;12.10;;;15.30;99.90;;;;;;5044653;28;20033;-72
2022/03/29 08:49:23;;;;;;;34.78;13.13;;;15.50;99.90;;;;;;5034977;28;20442;-73
2022/03/29 08:51:49;;;;;;;26.20;12.27;;;15.60;99.90;;;;;;5035313;28;20091;-70
2022/03/29 08:54:15;;;;;;;20.33;11.60;;;15.80;99.90;;;;;;5035413;28;20013;-71
2022/03/29 08:56:41;;;;;;;25.92;13.18;;;16.00;99.90;;;;;;5035300;28;20445;-72
2022/03/29 08:59:08;;;;;;;24.63;11.90;;;16.30;99.90;;;;;;5017574;28;20018;-70
2022/03/29 09:01:34;;;;;;;25.33;13.13;;;16.50;99.90;;;;;;5018938;28;20034;-72
2022/03/29 09:04:12;;;;;;;21.90;12.32;;;17.00;99.90;;;;;;5035953;28;20569;-71
2022/03/29 09:06:50;;;;;;;20.70;10.93;;;17.60;99.90;;;;;;5061448;28;20056;-74
2022/03/29 09:09:24;;;;;;;20.63;10.75;;;18.10;99.90;;;;;;5075150;28;20032;-74
2022/03/29 09:11:51;;;;;;;18.05;10.73;;;18.60;99.90;;;;;;5074857;28;20032;-75
2022/03/29 09:14:18;;;;;;;19.75;10.70;;;18.80;99.90;;;;;;5074156;28;20078;-76
2022/03/29 09:16:44;;;;;;;19.05;10.48;;;19.70;99.90;;;;;;5058456;28;20070;-76
2022/03/29 09:19:11;;;;;;;18.27;9.35;;;20.40;99.90;;;;;;5054257;28;20426;-79
2022/03/29 09:21:44;;;;;;;17.00;9.15;;;20.60;99.90;;;;;;5054871;28;20381;-74
2022/03/29 09:24:12;;;;;;;19.95;10.57;;;20.50;99.90;;;;;;5054849;28;20029;-74
2022/03/29 09:26:43;;;;;;;22.67;10.35;;;20.60;99.90;;;;;;5053439;28;20021;-76
2022/03/29 09:29:22;;;;;;;25.42;10.55;;;20.40;99.90;;;;;;5064274;28;20062;-73
2022/03/29 09:32:06;;;;;;;26.15;10.82;;;20.10;99.90;;;;;;5074981;28;20025;-76
2022/03/29 09:34:33;;;;;;;21.02;10.52;;;19.80;99.90;;;;;;5075209;28;20024;-74
2022/03/29 09:37:01;;;;;;;19.02;9.88;;;19.70;99.90;;;;;;5072927;28;20016;-75
2022/03/29 09:39:41;;;;;;;20.08;9.88;;;19.80;99.90;;;;;;5073207;28;20423;-75
2022/03/29 09:42:15;;;;;;;21.13;11.18;;;19.90;99.90;;;;;;5073860;28;20031;-75
2022/03/29 09:44:49;;;;;;;17.77;10.52;;;19.80;99.90;;;;;;5074412;28;20515;-74
2022/03/29 09:47:20;;;;;;;17.17;9.88;;;20.20;99.90;;;;;;5072658;28;20028;-76
2022/03/29 09:49:55;;;;;;;21.20;10.80;;;20.50;99.90;;;;;;5074254;28;20025;-76
2022/03/29 09:52:23;;;;;;;19.88;10.80;;;20.90;99.90;;;;;;5074848;28;20017;-74
2022/03/29 09:55:13;;;;;;;18.83;10.45;;;20.90;99.90;;;;;;5073722;28;20040;-75
2022/03/29 09:57:54;;;;;;;20.42;10.63;;;21.10;99.60;;;;;;5073560;28;20070;-74
2022/03/29 10:00:28;;;;;;;19.48;10.13;;;20.60;99.90;;;;;;5072535;28;20521;-74
2022/03/29 10:02:54;;;;;;;22.67;9.98;;;20.40;99.90;;;;;;5063619;28;20412;-73
2022/03/29 10:05:20;;;;;;;19.83;10.52;;;20.10;99.90;;;;;;5052547;28;20028;-72
2022/03/29 10:10:55;;;;;;;18.67;9.65;;;21.20;99.20;;;;;;5034390;28;20036;-74
2022/03/29 10:13:23;;;;;;;19.77;9.70;;;22.50;97.40;;;;;;5033939;28;20479;-74
2022/03/29 10:15:54;;;;;;;17.10;9.48;;;22.30;97.00;;;;;;5034095;28;20104;-78
2022/03/29 10:18:23;;;;;;;18.92;9.10;;;22.30;96.70;;;;;;5047981;28;20473;-75
2022/03/29 10:20:49;;;;;;;22.63;10.52;;;22.10;96.60;;;;;;5035857;28;20440;-78
2022/03/29 10:23:18;;;;;;;16.17;9.68;;;21.90;96.80;;;;;;5052916;28;20033;-72
2022/03/29 10:25:44;;;;;;;18.88;9.85;;;21.50;97.20;;;;;;5033816;28;20456;-73
2022/03/29 10:28:10;;;;;;;21.88;10.65;;;21.50;97.40;;;;;;5032026;28;20406;-73
2022/03/29 10:30:41;;;;;;;21.95;9.25;;;21.80;97.10;;;;;;5032467;28;20112;-75
2022/03/29 10:33:19;;;;;;;18.92;10.05;;;22.50;95.90;;;;;;5032527;28;20171;-75
2022/03/29 10:36:05;;;;;;;20.73;9.07;;;22.70;95.30;;;;;;5033540;28;20018;-74
2022/03/29 10:38:46;;;;;;;25.35;9.73;;;23.00;94.70;;;;;;5033488;28;20029;-73
2022/03/29 10:41:27;;;;;;;19.48;8.90;;;23.90;93.50;;;;;;5033462;28;20033;-73
2022/03/29 10:44:01;;;;;;;23.63;9.40;;;24.00;92.80;;;;;;5033452;28;20075;-74
2022/03/29 10:46:43;;;;;;;17.20;8.48;;;24.10;92.60;;;;;;5033715;28;20030;-75
2022/03/29 10:49:21;;;;;;;23.20;8.65;;;26.30;90.10;;;;;;5015643;28;20026;-73
2022/03/29 10:51:49;;;;;;;15.20;7.70;;;28.40;86.00;;;;;;5033330;28;20029;-74
2022/03/29 10:54:33;;;;;;;19.45;9.77;;;28.80;79.00;;;;;;5033271;28;20057;-73
2022/03/29 10:57:06;;;;;;;18.08;8.82;;;27.40;80.60;;;;;;5033200;28;20573;-73
2022/03/29 10:59:37;;;;;;;15.30;8.10;;;27.80;80.00;;;;;;5033509;28;20060;-73
2022/03/29 11:02:15;;;;;;;15.32;8.05;;;29.30;75.70;;;;;;5033261;28;20018;-75
2022/03/29 11:05:00;;;;;;;16.42;7.93;;;29.40;71.30;;;;;;5033837;28;20426;-75
2022/03/29 11:07:26;;;;;;;14.07;8.10;;;31.20;69.30;;;;;;5032774;28;20053;-73
2022/03/29 11:10:20;;;;;;;16.55;8.23;;;29.50;68.10;;;;;;5033323;28;20034;-74
2022/03/29 11:12:54;;;;;;;14.68;7.97;;;29.10;67.10;;;;;;5033640;28;20062;-74
2022/03/29 11:15:27;;;;;;;14.13;6.95;;;31.30;65.60;;;;;;5033360;28;20057;-73
2022/03/29 11:17:54;;;;;;;16.38;8.05;;;32.10;61.40;;;;;;5033079;28;20100;-73
2022/03/29 11:20:33;;;;;;;12.07;6.50;;;31.90;62.00;;;;;;5033338;28;20057;-74
2022/03/29 11:23:06;;;;;;;15.30;7.32;;;33.00;59.10;;;;;;5033381;28;20022;-74
2022/03/29 11:25:43;;;;;;;18.40;6.80;;;34.00;56.20;;;;;;5033554;28;20040;-74
2022/03/29 11:28:15;;;;;;;18.02;6.78;;;34.30;54.80;;;;;;5033050;28;20025;-72
2022/03/29 11:30:41;;;;;;;14.40;6.75;;;34.60;53.60;;;;;;5015244;28;20038;-74
2022/03/29 11:33:08;;;;;;;15.60;6.53;;;34.80;52.80;;;;;;5032962;28;20054;-73
2022/03/29 11:35:35;;;;;;;15.60;6.68;;;34.70;51.40;;;;;;5033177;28;20541;-74
2022/03/29 11:38:13;;;;;;;14.00;6.80;;;34.40;51.20;;;;;;5032909;28;20367;-73
2022/03/29 11:40:39;;;;;;;15.05;7.30;;;34.00;50.40;;;;;;5033195;28;20033;-74
2022/03/29 11:43:11;;;;;;;16.33;7.20;;;33.10;51.00;;;;;;5033145;28;20026;-74
2022/03/29 11:45:43;;;;;;;16.15;7.32;;;30.80;52.90;;;;;;5033194;28;20148;-72
2022/03/29 11:48:14;;;;;;;14.55;7.45;;;28.50;55.60;;;;;;5014854;28;20033;-74
2022/03/29 11:50:52;;;;;;;16.98;7.65;;;27.80;57.80;;;;;;5033350;28;20115;-74
2022/03/29 11:53:35;;;;;;;17.95;9.20;;;26.80;58.40;;;;;;5032790;28;20044;-75
2022/03/29 11:56:14;;;;;;;18.27;7.85;;;26.40;59.50;;;;;;5032830;28;20018;-73
2022/03/29 11:58:50;;;;;;;16.23;7.65;;;25.70;60.40;;;;;;5032780;28;20486;-73
2022/03/29 12:01:21;;;;;;;16.73;7.63;;;25.90;60.90;;;;;;5032772;28;20402;-74
2022/03/29 12:03:48;;;;;;;15.00;7.32;;;25.40;60.50;;;;;;5015586;28;20047;-73
2022/03/29 12:06:17;;;;;;;13.20;7.57;;;25.00;62.60;;;;;;5036178;28;20060;-74
2022/03/29 12:08:43;;;;;;;19.70;8.47;;;24.70;64.30;;;;;;5036360;28;20017;-73
2022/03/29 12:11:09;;;;;;;17.00;8.40;;;24.90;64.30;;;;;;5036154;28;20283;-73
2022/03/29 12:13:34;;;;;;;14.68;7.70;;;25.00;64.20;;;;;;5036463;28;20029;-73
2022/03/29 12:16:18;;;;;;;14.00;7.78;;;25.20;63.60;;;;;;5036203;28;20028;-73
2022/03/29 12:18:45;;;;;;;13.13;7.72;;;25.40;63.00;;;;;;5018105;28;20064;-73
2022/03/29 12:21:13;;;;;;;17.58;8.50;;;25.00;63.40;;;;;;5036093;28;20025;-74
2022/03/29 12:23:41;;;;;;;14.60;8.00;;;24.50;63.20;;;;;;5035995;28;20486;-74
2022/03/29 12:26:11;;;;;;;14.50;8.25;;;24.40;65.10;;;;;;5035978;28;20037;-73
2022/03/29 12:28:39;;;;;;;13.40;7.32;;;25.10;64.30;;;;;;5035991;28;20022;-74
2022/03/29 12:31:12;;;;;;;15.85;7.93;;;25.20;63.00;;;;;;5036078;28;20029;-74
2022/03/29 12:33:39;;;;;;;13.98;7.75;;;24.50;64.00;;;;;;5035814;28;20478;-74
2022/03/29 12:36:06;;;;;;;16.63;9.05;;;24.40;65.30;;;;;;5035761;28;20026;-73
2022/03/29 12:38:41;;;;;;;19.02;8.57;;;24.40;65.20;;;;;;5035766;28;20505;-74
2022/03/29 12:41:07;;;;;;;28.40;10.65;;;24.20;65.90;;;;;;5036266;28;20102;-73
2022/03/29 12:43:35;;;;;;;18.33;9.30;;;24.40;64.70;;;;;;5035892;28;20443;-74
2022/03/29 12:46:11;;;;;;;14.43;8.60;;;24.60;64.60;;;;;;5035648;28;20021;-74
2022/03/29 12:48:41;;;;;;;15.02;8.00;;;24.50;65.10;;;;;;5036152;28;20025;-74
2022/03/29 12:51:07;;;;;;;17.05;8.70;;;24.40;66.50;;;;;;5035498;28;20090;-74
2022/03/29 12:53:34;;;;;;;20.77;9.20;;;24.30;65.70;;;;;;5035474;28;20442;-74